Stunt Ranch Reserve, Santa Monica Mtns, California Weather observations

Data are for 10 minute period ending at time listed.
 Day   Time   Solar   Ave.   Ave.  Ave.  Vector  Max.   Baro.   Total    
  of    of     Rad.   Air    Rel.  Wind   Wind   Wind  Press.  Precip.   
Year   Day            Temp.  Hum.  Speed  Dir.   Gust                    
2014   (PST)  Kw/m2    F      %     mph   deg.    mph    mb.     in.     
-------------------------------------------------------------------------
 233   14:10   0.78   89.8    37    3.0   286     8.2   966.8    0.00 
 233   14:20   0.76   90.6    36    3.5   286     8.0   966.8    0.00 
 233   14:30   0.74   88.7    37    3.6   292     9.5   966.8    0.00 
 233   14:40   0.71   88.6    37    3.2   295    10.2   966.8    0.00 
 233   14:50   0.68   89.2    36    3.4   284     8.5   966.8    0.00 
 233   15:00   0.66   89.1    37    3.6   290     9.1   966.8    0.00 
 233   15:10   0.63   87.3    39    3.4   293     7.9   966.8    0.00 
 233   15:20   0.60   86.5    40    3.4   320     8.6   966.8    0.00 
 233   15:30   0.57   85.4    41    3.1   319     7.6   966.8    0.00 
 233   15:40   0.54   86.1    40    2.9   326     7.8   966.8    0.00 
 233   15:50   0.50   86.6    40    2.2   292     8.4   966.5    0.00 
 233   16:00   0.47   87.2    39    2.7   288     8.6   966.5    0.00 
 233   16:10   0.44   87.5    38    2.9   288     7.2   966.5    0.00 
 233   16:20   0.40   87.8    38    2.2   289     5.6   966.5    0.00 
 233   16:30   0.37   88.3    37    2.8   292     6.8   966.5    0.00 
 233   16:40   0.34   89.1    37    2.2   288     5.9   966.5    0.00 
 233   16:50   0.30   88.5    38    2.5   294     6.5   966.5    0.00 
 233   17:00   0.27   87.5    39    2.6   294     6.6   966.5    0.00 
 233   17:10   0.23   86.9    41    2.0   300     6.4   966.5    0.00 
 233   17:20   0.20   86.8    41    1.9   294     5.4   966.8    0.00 
 233   17:30   0.17   85.5    43    1.8   285     5.2   966.5    0.00 
 233   17:40   0.14   82.4    47    1.8   296     6.4   966.5    0.00 
 233   17:50   0.10   80.3    50    1.6   304     4.7   966.5    0.00 
 233   18:00   0.05   79.3    51    1.5   293     3.4   966.5    0.00 
 233   18:10   0.03   78.6    52    1.2   297     3.7   966.1    0.00 
 233   18:20   0.01   77.6    54    1.9   280     4.3   966.5    0.00 
 233   18:30   0.01   76.7    56    1.2   288     3.8   966.5    0.00 
 233   18:40   0.01   75.3    58    1.2   282     3.9   966.5    0.00 
 233   18:50   0.00   73.6    61    2.8   270     4.9   966.5    0.00 
 233   19:00   0.00   71.7    65    1.7   259     3.0   966.5    0.00 
 233   19:10   0.00   71.2    64    0.6   272     3.0   966.5    0.00 
 233   19:20   0.00   71.0    64    0.3   283     1.6   966.8    0.00 
 233   19:30   0.00   70.8    64    0.5   121     1.4   967.2    0.00 
 233   19:40   0.00   70.6    63    0.4   152     1.6   967.5    0.00 
 233   19:50   0.00   70.3    62    0.4   142     1.5   967.5    0.00 
 233   20:00   0.00   70.1    62    2.0   145     2.9   967.5    0.00 
 233   20:10   0.00   69.3    63    1.2   106     3.5   967.8    0.00 
 233   20:20   0.00   69.2    64    2.1   274     4.6   967.8    0.00 
 233   20:30   0.00   69.2    65    1.2   192     3.3   967.8    0.00 
 233   20:40   0.00   68.8    66    1.9   125     3.5   968.2    0.00 
 233   20:50   0.00   68.6    65    1.5   119     3.6   968.2    0.00 
 233   21:00   0.00   68.5    66    0.4   228     1.2   968.2    0.00 
 233   21:10   0.00   68.2    66    2.6   266     5.7   968.2    0.00 
 233   21:20   0.00   67.5    69    5.2   271     6.6   968.2    0.00 
 233   21:30   0.00   67.0    72    0.9   201     4.3   968.2    0.00 
 233   21:40   0.00   66.9    73    0.4   143     1.8   968.2    0.00 
 233   21:50   0.00   66.8    73    0.2   238     1.2   968.5    0.00 
 233   22:00   0.00   66.5    73    1.9   282     3.1   968.5    0.00 
 233   22:10   0.00   66.3    74    1.4   325     3.1   968.5    0.00 
 233   22:20   0.00   66.3    74    0.6    50     2.5   968.8    0.00 
 233   22:30   0.00   66.3    73    0.7   203     2.1   968.8    0.00 
 233   22:40   0.00   66.4    72    0.7   216     2.3   968.8    0.00 
 233   22:50   0.00   66.4    72    0.6   256     2.4   968.8    0.00 
 233   23:00   0.00   66.4    72    2.6   140     5.0   968.8    0.00 
 233   23:10   0.00   67.8    70    1.9   127     4.1   968.5    0.00 
 233   23:20   0.00   67.1    70    2.5   134     4.1   968.5    0.00 
 233   23:30   0.00   68.0    68    0.9   152     2.5   968.5    0.00 
 233   23:40   0.00   67.1    70    2.2   276     3.4   968.5    0.00 
 233   23:50   0.00   65.9    72    0.8   194     1.8   968.5    0.00 
 234    0:00   0.00   65.7    71    1.6   139     2.8   968.5    0.00 
 234    0:10   0.00   65.7    70    1.0   213     2.0   968.5    0.00 
 234    0:20   0.00   65.5    72    0.5   354     1.4   968.5    0.00 
 234    0:30   0.00   65.8    70    0.8   154     1.5   968.2    0.00 
 234    0:40   0.00   66.3    68    0.7   175     3.1   968.2    0.00 
 234    0:50   0.00   66.1    69    2.6   271     3.9   968.2    0.00 
 234    1:00   0.00   66.0    68    1.3   129     2.8   968.2    0.00 
 234    1:10   0.00   65.7    68    2.4   125     3.5   968.2    0.00 
 234    1:20   0.00   66.1    68    0.3    59     1.2   968.2    0.00 
 234    1:30   0.00   66.3    68    0.4   186     1.2   968.2    0.00 
 234    1:40   0.00   66.4    68    1.8   272     2.9   968.2    0.00 
 234    1:50   0.00   65.9    69    1.1   264     2.0   968.2    0.00 
 234    2:00   0.00   65.3    70    0.1   325     1.1   968.2    0.00 
 234    2:10   0.00   65.0    70    0.8   161     1.8   968.2    0.00 
 234    2:20   0.00   64.6    71    0.2   312     1.8   968.2    0.00 
 234    2:30   0.00   64.9    71    1.4   125     2.8   967.8    0.00 
 234    2:40   0.00   65.6    70    0.6   120     1.4   967.8    0.00 
 234    2:50   0.00   65.5    71    0.3   305     1.2   967.8    0.00 
 234    3:00   0.00   65.3    73    1.3   267     2.3   967.8    0.00 
 234    3:10   0.00   65.2    73    1.8   260     3.5   967.8    0.00 
 234    3:20   0.00   64.4    75    1.0   261     1.6   967.8    0.00 
 234    3:30   0.00   64.0    76    0.0   355     0.4   967.8    0.00 
 234    3:40   0.00   63.8    76    1.1   149     1.9   967.8    0.00 
 234    3:50   0.00   63.3    78    1.1   269     2.2   967.5    0.00 
 234    4:00   0.00   63.2    78    1.1   260     2.2   967.5    0.00 
 234    4:10   0.00   63.3    78    0.4   102     1.6   967.5    0.00 
 234    4:20   0.00   63.4    78    2.2   124     3.1   967.5    0.00 
 234    4:30   0.00   63.8    78    2.0   159     2.9   967.5    0.00 
 234    4:40   0.00   63.5    78    2.0   266     3.0   967.5    0.00 
 234    4:50   0.00   63.5    78    1.2   276     1.9   967.5    0.00 
 234    5:00   0.00   63.2    78    0.1    46     1.1   967.5    0.00 
 234    5:10   0.00   62.9    79    0.2   150     0.9   967.5    0.00 
 234    5:20   0.00   62.8    80    0.5   103     2.6   967.8    0.00 
 234    5:30   0.01   62.9    79    2.8   140     3.4   967.8    0.00 
 234    5:40   0.01   63.3    78    2.1   133     3.9   967.8    0.00 
 234    5:50   0.01   63.9    77    2.4   130     3.0   967.8    0.00 
 234    6:00   0.02   64.5    76    1.8   129     2.6   967.8    0.00 
 234    6:10   0.03   64.7    76    0.5   140     2.2   967.8    0.00 
 234    6:20   0.03   64.5    77    0.2    44     0.9   968.2    0.00 
 234    6:30   0.13   65.5    74    0.6    72     1.6   968.2    0.00 
 234    6:40   0.17   68.9    66    0.3    18     1.7   968.2    0.00 
 234    6:50   0.20   71.5    61    2.6   283     4.2   968.2    0.00 
 234    7:00   0.24   72.3    60    2.0   284     3.3   968.2    0.00 
 234    7:10   0.28   71.8    61    1.4   312     2.9   968.2    0.00 
 234    7:20   0.31   72.0    60    1.5   292     2.6   968.2    0.00 
 234    7:30   0.34   73.5    58    1.2   300     2.4   968.2    0.00 
 234    7:40   0.38   73.7    59    1.6   314     4.4   968.5    0.00 
 234    7:50   0.41   75.2    58    2.4   360     5.8   968.2    0.00 
 234    8:00   0.45   76.3    56    3.0   357     7.7   968.2    0.00 
 234    8:10   0.48   76.4    56    2.2   318     5.0   968.2    0.00 
 234    8:20   0.51   76.4    58    3.0   339     6.1   968.2    0.00 
 234    8:30   0.54   77.8    56    2.6   360     6.4   968.2    0.00 
 234    8:40   0.58   79.7    52    3.3   357     7.6   968.2    0.00 
 234    8:50   0.61   80.9    49    4.2    15     8.5   968.2    0.00 
 234    9:00   0.64   80.0    51    3.8   351     8.8   968.5    0.00 
 234    9:10   0.66   80.4    51    3.1   307     8.8   968.5    0.00 
 234    9:20   0.69   81.6    50    3.5   292     7.7   968.5    0.00 
 234    9:30   0.71   82.1    50    3.3   288     7.0   968.8    0.00 
 234    9:40   0.74   82.0    50    3.1   294     9.2   968.8    0.00 
 234    9:50   0.76   81.1    52    4.2   292     9.3   968.8    0.00 
 234   10:00   0.79   80.7    52    4.6   282     8.6   968.8    0.00 
 234   10:10   0.80   80.9    52    3.8   296     8.3   968.8    0.00 
 234   10:20   0.82   80.9    52    4.3   293     9.1   968.8    0.00 
 234   10:30   0.84   81.6    50    3.5   298     8.3   968.8    0.00 
 234   10:40   0.85   83.0    49    3.6   287     9.4   968.8    0.00 
 234   10:50   0.87   84.0    48    3.7   288     8.5   968.8    0.00 
 234   11:00   0.88   83.8    49    3.7   284     9.1   968.8    0.00 
 234   11:10   0.89   83.6    49    3.7   300     7.5   969.2    0.00 
 234   11:20   0.90   83.6    49    4.0   293     8.7   969.2    0.00 
 234   11:30   0.90   84.3    47    4.4   285     8.8   969.2    0.00 
 234   11:40   0.90   84.5    47    4.0   297     8.1   969.2    0.00 
 234   11:50   0.91   85.7    45    4.1   282     8.5   968.8    0.00 
 234   12:00   0.91   85.2    46    4.7   310     8.0   968.8    0.00 
 234   12:10   0.91   85.8    45    3.5   296     8.4   968.8    0.00 
 234   12:20   0.90   86.3    44    4.2   289     8.9   968.8    0.00 
 234   12:30   0.90   85.9    45    3.2   302     7.2   968.8    0.00 
 234   12:40   0.90   86.7    43    3.6   271    10.0   968.8    0.00 
 234   12:50   0.89   85.3    40    5.2   152    12.2   968.5    0.00 
 234   13:00   0.85   84.8    41    3.0   168     8.0   968.5    0.00 
 234   13:10   0.88   85.3    40    4.3   158    11.2   968.5    0.00 
 234   13:20   0.86   84.8    40    6.0   157    13.1   968.5    0.00 
 234   13:30   0.84   84.1    40    5.7   162    13.7   968.5    0.00 
 234   13:40   0.83   83.9    39    8.2   154    13.7   968.2    0.00 
 234   13:50   0.81   84.5    38    8.0   157    14.3   968.2    0.00 
 234   14:00   0.80   84.6    38    7.8   154    14.9   967.8    0.00 

Return to Stunt Ranch Reserve graphs page.


Western Regional Climate Center,wrcc@dri.edu